Time;durP1;ratioP1;P1;durP2;ratioP2;P2;SDS_P1;SDS_P2;PMS_P1;PMS_P2;Temp;Humidity;BMP_temperature;BMP_pressure;BME280_temperature;BME280_humidity;BME280_pressure;Samples;Min_cycle;Max_cycle;Signal;HPM_P1;HPM_P2
2022/11/25 00:01:07;;;;;;;;;;;;;;;6.87;100.00;100836.56;4973789;28;19930;-63
2022/11/25 00:03:32;;;;;;;;;;;;;;;6.86;100.00;100830.22;4972152;28;20269;-63
2022/11/25 00:06:06;;;;;;;;;;;;;;;6.87;100.00;100836.56;4973460;28;19940;-63
2022/11/25 00:08:31;;;;;;;;;;;;;;;6.87;100.00;100831.88;4973439;28;20396;-64
2022/11/25 00:10:59;;;;;;;;;;;;;;;6.90;100.00;100832.41;4973661;28;20009;-64
2022/11/25 00:13:24;;;;;;;;;;;;;;;6.89;100.00;100828.00;4973452;28;20368;-63
2022/11/25 00:15:49;;;;;;;;;;;;;;;6.90;100.00;100830.47;4973598;28;19914;-62
2022/11/25 00:18:14;;;;;;;;;;;;;;;6.89;100.00;100820.59;4973573;28;19914;-63
2022/11/25 00:20:40;;;;;;;;;;;;;;;6.90;100.00;100827.72;4973282;28;20372;-62
2022/11/25 00:23:05;;;;;;;;;;;;;;;6.90;100.00;100813.16;4972960;28;19918;-63
2022/11/25 00:25:30;;;;;;;;;;;;;;;6.90;100.00;100824.16;4972660;28;19957;-64
2022/11/25 00:27:55;;;;;;;;;;;;;;;6.92;100.00;100811.75;4972845;28;20032;-64
2022/11/25 00:30:20;;;;;;;;;;;;;;;6.94;100.00;100815.06;4972951;28;19961;-64
2022/11/25 00:32:45;;;;;;;;;;;;;;;6.95;100.00;100813.97;4969277;28;20530;-64
2022/11/25 00:35:11;;;;;;;;;;;;;;;6.97;100.00;100808.16;4972918;28;19972;-64
2022/11/25 00:37:36;;;;;;;;;;;;;;;6.93;100.00;100812.59;4972830;28;19941;-64
2022/11/25 00:40:01;;;;;;;;;;;;;;;7.00;100.00;100810.38;4972921;28;19914;-64
2022/11/25 00:45:10;;;;;;;;;;;;;;;7.09;100.00;100800.41;4972976;28;20064;-66
2022/11/25 00:47:35;;;;;;;;;;;;;;;7.15;100.00;100806.72;4972935;28;20241;-65
2022/11/25 00:50:00;;;;;;;;;;;;;;;7.24;100.00;100801.41;4972715;28;20017;-65
2022/11/25 00:52:26;;;;;;;;;;;;;;;7.31;100.00;100807.44;4972812;28;19922;-64
2022/11/25 00:54:51;;;;;;;;;;;;;;;7.38;100.00;100802.44;4972074;28;19921;-65
2022/11/25 00:57:18;;;;;;;;;;;;;;;7.46;100.00;100809.28;4972211;28;20013;-66
2022/11/25 00:59:43;;;;;;;;;;;;;;;7.53;100.00;100809.75;4971945;28;19918;-65
2022/11/25 01:02:10;;;;;;;;;;;;;;;7.55;100.00;100793.78;4971985;28;19953;-65
2022/11/25 01:04:35;;;;;;;;;;;;;;;7.66;100.00;100805.53;4970641;28;20301;-64
2022/11/25 01:07:01;;;;;;;;;;;;;;;7.70;100.00;100805.78;4972004;28;19914;-63
2022/11/25 01:09:27;;;;;;;;;;;;;;;7.73;100.00;100805.22;4972248;28;20262;-64
2022/11/25 01:11:52;;;;;;;;;;;;;;;7.78;100.00;100807.91;4972486;28;20302;-63
2022/11/25 01:14:18;;;;;;;;;;;;;;;7.84;100.00;100801.25;4972381;28;20369;-63
2022/11/25 01:16:43;;;;;;;;;;;;;;;7.86;100.00;100803.72;4972367;28;19918;-65
2022/11/25 01:19:09;;;;;;;;;;;;;;;7.88;100.00;100799.56;4970803;28;19921;-64
2022/11/25 01:21:34;;;;;;;;;;;;;;;7.90;100.00;100807.53;4972401;28;20258;-64
2022/11/25 01:24:01;;;;;;;;;;;;;;;7.93;100.00;100804.19;4972729;28;20001;-64
2022/11/25 01:26:26;;;;;;;;;;;;;;;7.92;100.00;100800.66;4971675;28;20566;-63
2022/11/25 01:28:54;;;;;;;;;;;;;;;7.99;100.00;100816.00;4967175;28;19918;-64
2022/11/25 01:31:20;;;;;;;;;;;;;;;8.00;100.00;100812.13;4972337;28;20159;-63
2022/11/25 01:33:47;;;;;;;;;;;;;;;8.00;100.00;100807.44;4970702;28;20053;-63
2022/11/25 01:36:16;;;;;;;;;;;;;;;8.00;100.00;100809.38;4986836;28;20354;-64
2022/11/25 01:38:41;;;;;;;;;;;;;;;8.04;100.00;100813.19;4972284;28;19980;-64
2022/11/25 01:41:08;;;;;;;;;;;;;;;8.05;100.00;100812.06;4972188;28;19922;-63
2022/11/25 01:43:34;;;;;;;;;;;;;;;8.07;100.00;100821.72;4959152;28;19919;-64
2022/11/25 01:46:05;;;;;;;;;;;;;;;8.10;100.00;100823.06;4952996;28;19928;-63
2022/11/25 01:48:38;;;;;;;;;;;;;;;8.11;100.00;100831.03;4952840;29;20044;-64
2022/11/25 01:51:04;;;;;;;;;;;;;;;8.15;100.00;100836.78;4952716;28;20229;-64
2022/11/25 01:53:29;;;;;;;;;;;;;;;8.15;100.00;100834.03;4952708;28;19925;-65
2022/11/25 01:55:58;;;;;;;;;;;;;;;8.17;100.00;100828.25;4952808;29;19937;-64
2022/11/25 01:58:26;;;;;;;;;;;;;;;8.26;100.00;100843.03;4952772;28;19951;-65
2022/11/25 02:00:51;;;;;;;;;;;;;;;8.22;100.00;100837.25;4952347;28;19997;-62
2022/11/25 02:03:35;;;;;;;;;;;;;;;8.25;100.00;100835.88;4952513;29;20009;-63
2022/11/25 02:06:10;;;;;;;;;;;;;;;8.37;100.00;100841.00;4952447;28;20009;-63
2022/11/25 02:08:35;;;;;;;;;;;;;;;8.50;100.00;100848.59;4952284;28;19914;-63
2022/11/25 02:11:03;;;;;;;;;;;;;;;8.51;100.00;100844.72;4952521;29;20450;-64
2022/11/25 02:13:29;;;;;;;;;;;;;;;8.51;100.00;100841.97;4953032;28;19957;-64
2022/11/25 02:15:54;;;;;;;;;;;;;;;8.56;100.00;100868.66;4952510;28;19962;-63
2022/11/25 02:18:19;;;;;;;;;;;;;;;8.66;100.00;100856.72;4980152;23;19969;-62
2022/11/25 02:20:44;;;;;;;;;;;;;;;8.64;100.00;100854.25;4971962;28;20314;-63
2022/11/25 02:23:25;;;;;;;;;;;;;;;8.67;100.00;100867.44;4969302;28;19913;-63
2022/11/25 02:25:51;;;;;;;;;;;;;;;8.71;100.00;100863.00;4971763;28;19922;-63
2022/11/25 02:28:23;;;;;;;;;;;;;;;8.72;100.00;100875.69;4971540;28;20455;-62
2022/11/25 02:30:49;;;;;;;;;;;;;;;8.73;100.00;100863.53;4971756;28;19914;-62
2022/11/25 02:33:15;;;;;;;;;;;;;;;8.68;100.00;100879.31;4971565;28;19941;-63
2022/11/25 02:35:46;;;;;;;;;;;;;;;8.65;100.00;100875.19;4971691;28;19925;-63
2022/11/25 02:38:14;;;;;;;;;;;;;;;8.68;100.00;100884.81;4971622;28;20368;-62
2022/11/25 02:40:51;;;;;;;;;;;;;;;8.65;100.00;100877.94;4972635;28;19961;-62
2022/11/25 02:43:17;;;;;;;;;;;;;;;8.65;100.00;100874.38;4975368;28;19948;-62
2022/11/25 02:45:48;;;;;;;;;;;;;;;8.62;100.00;100884.06;4975167;28;19966;-62
2022/11/25 02:48:14;;;;;;;;;;;;;;;8.58;100.00;100883.81;4975382;28;19920;-63
2022/11/25 02:50:39;;;;;;;;;;;;;;;8.60;100.00;100879.97;4975094;28;19914;-63
2022/11/25 02:53:05;;;;;;;;;;;;;;;8.49;100.00;100882.81;4974946;28;19914;-62
2022/11/25 02:55:30;;;;;;;;;;;;;;;8.46;100.00;100885.28;4975070;28;19954;-62
2022/11/25 02:57:55;;;;;;;;;;;;;;;8.40;100.00;100884.53;4974766;28;19988;-62
2022/11/25 03:00:20;;;;;;;;;;;;;;;8.43;100.00;100890.28;4974954;28;19925;-62
2022/11/25 03:02:46;;;;;;;;;;;;;;;8.35;100.00;100890.06;4974218;28;19914;-61
2022/11/25 03:05:12;;;;;;;;;;;;;;;8.28;100.00;100894.00;4974344;28;19925;-62
2022/11/25 03:07:38;;;;;;;;;;;;;;;8.23;100.00;100880.25;4974656;28;19933;-62
2022/11/25 03:10:03;;;;;;;;;;;;;;;8.18;100.00;100883.06;4974754;28;19929;-63
2022/11/25 03:12:28;;;;;;;;;;;;;;;8.12;100.00;100845.66;4974778;28;19914;-62
2022/11/25 03:14:53;;;;;;;;;;;;;;;8.09;100.00;100807.66;4974619;28;19914;-62
2022/11/25 03:17:19;;;;;;;;;;;;;;;8.06;100.00;100808.22;4973074;28;19976;-63
2022/11/25 03:19:44;;;;;;;;;;;;;;;8.03;100.00;100811.56;4973075;28;19914;-62
2022/11/25 03:22:09;;;;;;;;;;;;;;;7.99;100.00;100811.31;4974691;28;19918;-63
2022/11/25 03:24:34;;;;;;;;;;;;;;;7.95;100.00;100824.84;4974616;28;19977;-61
2022/11/25 03:27:00;;;;;;;;;;;;;;;7.92;100.00;100839.22;4974843;28;19925;-62
2022/11/25 03:29:25;;;;;;;;;;;;;;;7.95;100.00;100854.31;4974631;28;19922;-63
2022/11/25 03:31:50;;;;;;;;;;;;;;;7.89;100.00;100870.06;4974443;28;19924;-62
2022/11/25 03:34:15;;;;;;;;;;;;;;;7.88;100.00;100868.44;4974315;28;20040;-61
2022/11/25 03:36:40;;;;;;;;;;;;;;;7.89;100.00;100877.50;4974180;28;20370;-62
2022/11/25 03:39:05;;;;;;;;;;;;;;;7.88;100.00;100867.63;4974316;28;19921;-61
2022/11/25 03:41:31;;;;;;;;;;;;;;;7.87;100.00;100865.97;4973891;28;20008;-63
2022/11/25 03:43:56;;;;;;;;;;;;;;;7.85;100.00;100874.50;4974109;28;20362;-62
2022/11/25 03:46:21;;;;;;;;;;;;;;;7.83;100.00;100882.25;4973991;28;19914;-62
2022/11/25 03:48:46;;;;;;;;;;;;;;;7.80;100.00;100900.16;4973960;28;19945;-62
2022/11/25 03:51:11;;;;;;;;;;;;;;;7.80;100.00;100893.81;4973519;28;19918;-64
2022/11/25 03:53:37;;;;;;;;;;;;;;;7.79;100.00;100900.44;4974013;28;19926;-62
2022/11/25 03:56:02;;;;;;;;;;;;;;;7.76;100.00;100901.00;4974231;28;19918;-63
2022/11/25 03:58:27;;;;;;;;;;;;;;;7.73;100.00;100896.91;4973943;28;19949;-62
2022/11/25 04:00:52;;;;;;;;;;;;;;;7.70;100.00;100897.47;4973840;28;19980;-62
2022/11/25 04:03:17;;;;;;;;;;;;;;;7.68;100.00;100888.69;4973536;28;19918;-63
2022/11/25 04:05:43;;;;;;;;;;;;;;;7.65;100.00;100892.81;4973783;28;19928;-63
2022/11/25 04:08:08;;;;;;;;;;;;;;;7.62;100.00;100895.31;4972272;28;19937;-63
2022/11/25 04:10:33;;;;;;;;;;;;;;;7.57;100.00;100898.91;4973696;28;19914;-63
2022/11/25 04:12:58;;;;;;;;;;;;;;;7.53;100.00;100900.63;4971196;28;20408;-63
2022/11/25 04:15:23;;;;;;;;;;;;;;;7.49;100.00;100907.78;4973640;28;19921;-63
2022/11/25 04:17:49;;;;;;;;;;;;;;;7.45;100.00;100898.47;4973789;28;19951;-62
2022/11/25 04:20:14;;;;;;;;;;;;;;;7.41;100.00;100919.38;4972147;28;20286;-62
2022/11/25 04:22:39;;;;;;;;;;;;;;;7.37;100.00;100930.16;4973530;28;19918;-62
2022/11/25 04:25:05;;;;;;;;;;;;;;;7.35;100.00;100926.84;4973409;28;20274;-62
2022/11/25 04:27:30;;;;;;;;;;;;;;;7.32;100.00;100924.69;4976360;28;19921;-62
2022/11/25 04:29:55;;;;;;;;;;;;;;;7.30;100.00;100929.63;4992668;28;19919;-62
2022/11/25 04:32:21;;;;;;;;;;;;;;;7.30;100.00;100938.69;4992654;28;20365;-63
2022/11/25 04:34:46;;;;;;;;;;;;;;;7.31;100.00;100937.59;4992665;28;20008;-63
2022/11/25 04:37:11;;;;;;;;;;;;;;;7.31;100.00;100950.53;4992628;28;19980;-63
2022/11/25 04:39:36;;;;;;;;;;;;;;;7.33;100.00;100948.31;4992638;28;19972;-63
2022/11/25 04:44:46;;;;;;;;;;;;;;;7.34;100.00;100955.47;4992840;28;19932;-63
2022/11/25 04:47:11;;;;;;;;;;;;;;;7.36;100.00;100964.28;4992538;28;19917;-63
2022/11/25 04:49:36;;;;;;;;;;;;;;;7.33;100.00;100968.41;4992509;28;20061;-63
2022/11/25 04:52:01;;;;;;;;;;;;;;;7.35;100.00;100968.13;4992495;28;19914;-62
2022/11/25 04:54:26;;;;;;;;;;;;;;;7.36;100.00;100974.47;4992108;28;19914;-62
2022/11/25 04:56:51;;;;;;;;;;;;;;;7.32;100.00;100971.47;4992214;28;19918;-62
2022/11/25 05:02:01;;;;;;;;;;;;;;;7.30;100.00;100976.41;4992407;28;19920;-62
2022/11/25 05:04:26;;;;;;;;;;;;;;;7.27;100.00;100977.81;4991618;28;19921;-62
2022/11/25 05:06:51;;;;;;;;;;;;;;;7.25;100.00;100969.00;4992049;28;19925;-62
2022/11/25 05:09:17;;;;;;;;;;;;;;;7.22;100.00;100988.00;4989512;28;20670;-62
2022/11/25 05:11:42;;;;;;;;;;;;;;;7.18;100.00;100995.97;4992461;28;20234;-61
2022/11/25 05:14:07;;;;;;;;;;;;;;;7.16;100.00;100998.19;4992075;28;19932;-62
2022/11/25 05:16:32;;;;;;;;;;;;;;;7.10;100.00;100993.78;4992067;28;20350;-63
2022/11/25 05:18:58;;;;;;;;;;;;;;;7.04;100.00;101001.22;4991838;28;19917;-63
2022/11/25 05:21:23;;;;;;;;;;;;;;;7.01;100.00;101001.81;4991958;28;19925;-63
2022/11/25 05:23:48;;;;;;;;;;;;;;;7.00;100.00;101002.91;4992126;28;19914;-63
2022/11/25 05:26:13;;;;;;;;;;;;;;;6.95;100.00;100997.41;4991993;28;19920;-63
2022/11/25 05:28:38;;;;;;;;;;;;;;;6.92;100.00;101000.72;4991867;28;20419;-62
2022/11/25 05:31:04;;;;;;;;;;;;;;;6.88;100.00;100997.72;4992138;28;20326;-63
2022/11/25 05:33:29;;;;;;;;;;;;;;;6.83;100.00;101003.19;4991918;28;19921;-62
2022/11/25 05:35:55;;;;;;;;;;;;;;;6.77;100.00;100996.06;4992077;28;19914;-62
2022/11/25 05:38:20;;;;;;;;;;;;;;;6.75;100.00;101003.75;4991883;28;19920;-62
2022/11/25 05:40:46;;;;;;;;;;;;;;;6.71;100.00;101000.75;4991860;28;20293;-62
2022/11/25 05:43:11;;;;;;;;;;;;;;;6.68;100.00;101006.78;4991594;28;20052;-61
2022/11/25 05:45:38;;;;;;;;;;;;;;;6.63;100.00;101004.06;4991408;28;19926;-62
2022/11/25 05:48:03;;;;;;;;;;;;;;;6.62;100.00;101008.72;4991296;28;19955;-62
2022/11/25 05:50:28;;;;;;;;;;;;;;;6.59;100.00;101009.28;4991520;28;20008;-62
2022/11/25 05:52:53;;;;;;;;;;;;;;;6.55;100.00;101020.00;4991397;28;20625;-61
2022/11/25 05:55:18;;;;;;;;;;;;;;;6.50;100.00;101010.94;4989439;28;20018;-61
2022/11/25 05:57:44;;;;;;;;;;;;;;;6.46;100.00;101010.66;4990810;28;19913;-63
2022/11/25 06:00:09;;;;;;;;;;;;;;;6.44;100.00;101015.59;4979960;28;20426;-62
2022/11/25 06:02:34;;;;;;;;;;;;;;;6.41;100.00;101016.13;4971183;28;19918;-62
2022/11/25 06:04:59;;;;;;;;;;;;;;;6.39;100.00;101018.31;4969388;28;20040;-61
2022/11/25 06:07:25;;;;;;;;;;;;;;;6.38;100.00;101024.91;4972081;28;19957;-61
2022/11/25 06:09:50;;;;;;;;;;;;;;;6.38;100.00;101033.16;4971883;28;19918;-61
2022/11/25 06:12:15;;;;;;;;;;;;;;;6.37;100.00;101037.84;4971495;28;19917;-61
2022/11/25 06:14:40;;;;;;;;;;;;;;;6.39;100.00;101034.81;4971726;28;19918;-63
2022/11/25 06:17:05;;;;;;;;;;;;;;;6.37;100.00;101035.09;4974372;28;19922;-62
2022/11/25 06:19:30;;;;;;;;;;;;;;;6.39;100.00;101034.81;4974707;28;19961;-64
2022/11/25 06:21:56;;;;;;;;;;;;;;;6.35;100.00;101034.53;4974607;28;19922;-64
2022/11/25 06:24:21;;;;;;;;;;;;;;;6.31;100.00;101030.69;4974395;28;19918;-63
2022/11/25 06:26:46;;;;;;;;;;;;;;;6.30;100.00;101040.03;4974197;28;20024;-62
2022/11/25 06:29:11;;;;;;;;;;;;;;;6.33;100.00;101038.66;4974265;28;19941;-63
2022/11/25 06:31:36;;;;;;;;;;;;;;;6.30;100.00;101050.19;4974664;28;20013;-63
2022/11/25 06:34:02;;;;;;;;;;;;;;;6.34;100.00;101052.13;4974470;28;20021;-63
2022/11/25 06:36:27;;;;;;;;;;;;;;;6.30;100.00;101062.03;4974331;28;19924;-62
2022/11/25 06:38:53;;;;;;;;;;;;;;;6.29;100.00;101065.88;4974519;28;20290;-64
2022/11/25 06:41:19;;;;;;;;;;;;;;;6.28;100.00;101072.44;4974109;28;19972;-64
2022/11/25 06:43:44;;;;;;;;;;;;;;;6.31;100.00;101077.41;4974254;28;19914;-63
2022/11/25 06:46:10;;;;;;;;;;;;;;;6.33;100.00;101079.88;4974174;28;20283;-63
2022/11/25 06:48:35;;;;;;;;;;;;;;;6.38;100.00;101080.72;4974051;28;20404;-64
2022/11/25 06:51:02;;;;;;;;;;;;;;;6.37;100.00;101081.00;4973938;28;20009;-64
2022/11/25 06:53:28;;;;;;;;;;;;;;;6.32;100.00;101081.81;4973631;28;20013;-63
2022/11/25 06:56:02;;;;;;;;;;;;;;;6.27;100.00;101076.28;4973664;28;19996;-64
2022/11/25 06:58:29;;;;;;;;;;;;;;;6.23;100.00;101076.00;4973419;28;19913;-63
2022/11/25 07:00:58;;;;;;;;;;;;;;;6.34;100.00;101079.59;4971190;28;19937;-64
2022/11/25 07:03:23;;;;;;;;;;;;;;;6.21;100.00;101082.88;4973623;28;19918;-64
2022/11/25 07:05:49;;;;;;;;;;;;;;;6.17;100.00;101087.25;4973756;28;19921;-62
2022/11/25 07:08:14;;;;;;;;;;;;;;;6.13;100.00;101095.22;4973929;28;19937;-63
2022/11/25 07:10:39;;;;;;;;;;;;;;;6.09;100.00;101102.34;4973957;28;19957;-64
2022/11/25 07:13:04;;;;;;;;;;;;;;;6.07;100.00;101108.09;4973312;28;19914;-64
2022/11/25 07:15:29;;;;;;;;;;;;;;;6.05;100.00;101110.28;4973671;28;19914;-63
2022/11/25 07:17:54;;;;;;;;;;;;;;;6.05;100.00;101120.47;4974441;28;20341;-63
2022/11/25 07:20:20;;;;;;;;;;;;;;;6.06;100.00;101117.44;4973486;28;20008;-63
2022/11/25 07:22:46;;;;;;;;;;;;;;;6.07;100.00;101115.53;4974644;28;19914;-63
2022/11/25 07:25:11;;;;;;;;;;;;;;;6.08;100.00;101117.19;4974407;28;19914;-63
2022/11/25 07:27:36;;;;;;;;;;;;;;;6.07;100.00;101132.81;4973613;28;19972;-63
2022/11/25 07:30:01;;;;;;;;;;;;;;;6.06;100.00;101131.16;4974531;28;19914;-63
2022/11/25 07:32:26;;;;;;;;;;;;;;;6.06;100.00;101135.84;4974607;28;19921;-63
2022/11/25 07:34:52;;;;;;;;;;;;;;;6.06;100.00;101146.84;4974360;28;20375;-64
2022/11/25 07:37:17;;;;;;;;;;;;;;;6.04;100.00;101155.34;4974464;28;19946;-63
2022/11/25 07:39:42;;;;;;;;;;;;;;;6.07;100.00;101152.06;4974260;28;19914;-63
2022/11/25 07:42:07;;;;;;;;;;;;;;;6.05;100.00;101161.66;4972832;28;19915;-63
2022/11/25 07:44:32;;;;;;;;;;;;;;;6.04;100.00;101157.25;4974152;28;19921;-63
2022/11/25 07:46:57;;;;;;;;;;;;;;;6.03;100.00;101169.34;4974244;28;20228;-63
2022/11/25 07:49:25;;;;;;;;;;;;;;;6.01;100.00;101166.03;4974303;28;19937;-63
2022/11/25 07:51:52;;;;;;;;;;;;;;;6.01;100.00;101172.34;4972834;28;20013;-64
2022/11/25 07:54:18;;;;;;;;;;;;;;;6.07;100.00;101182.25;4974276;28;20037;-63
2022/11/25 07:56:44;;;;;;;;;;;;;;;6.10;100.00;101189.13;4969401;28;19983;-64
2022/11/25 07:59:11;;;;;;;;;;;;;;;6.11;100.00;101187.22;4974074;28;19918;-64
2022/11/25 08:01:37;;;;;;;;;;;;;;;6.11;100.00;101184.47;4974137;28;20499;-64
2022/11/25 08:04:02;;;;;;;;;;;;;;;6.12;100.00;101192.44;4979863;28;20004;-64
2022/11/25 08:06:28;;;;;;;;;;;;;;;6.12;100.00;101200.69;4973996;28;19918;-64
2022/11/25 08:08:54;;;;;;;;;;;;;;;6.14;100.00;101206.75;4974249;28;20358;-64
2022/11/25 08:11:27;;;;;;;;;;;;;;;6.14;100.00;101204.00;4973611;28;19974;-64
2022/11/25 08:13:52;;;;;;;;;;;;;;;6.15;100.00;101202.91;4973541;28;19917;-64
2022/11/25 08:16:19;;;;;;;;;;;;;;;6.18;100.00;101207.03;4988555;28;19940;-63
2022/11/25 08:18:45;;;;;;;;;;;;;;;6.24;100.00;101214.19;4973760;28;19994;-63
2022/11/25 08:21:11;;;;;;;;;;;;;;;6.24;100.00;101212.28;4973773;28;20300;-64
2022/11/25 08:23:37;;;;;;;;;;;;;;;6.39;100.00;101216.19;4973693;28;20262;-63
2022/11/25 08:26:10;;;;;;;;;;;;;;;6.29;100.00;101219.72;4973525;28;20012;-64
2022/11/25 08:28:35;;;;;;;;;;;;;;;6.31;100.00;101233.19;4973508;28;20084;-62
2022/11/25 08:31:11;;;;;;;;;;;;;;;6.34;100.00;101227.19;4973356;28;20367;-63
2022/11/25 08:33:36;;;;;;;;;;;;;;;6.41;100.00;101230.50;4973240;28;19921;-63
2022/11/25 08:36:02;;;;;;;;;;;;;;;6.43;100.00;101227.47;4973072;28;19914;-62
2022/11/25 08:38:27;;;;;;;;;;;;;;;6.53;100.00;101228.34;4973056;28;19922;-63
2022/11/25 08:40:54;;;;;;;;;;;;;;;6.56;100.00;101227.78;4972975;28;20009;-64
2022/11/25 08:43:20;;;;;;;;;;;;;;;6.59;100.00;101228.34;4973078;28;19921;-64
2022/11/25 08:45:46;;;;;;;;;;;;;;;6.72;100.00;101227.84;4972667;28;20381;-63
2022/11/25 08:48:11;;;;;;;;;;;;;;;6.67;100.00;101236.06;4972169;28;19956;-64
2022/11/25 08:50:37;;;;;;;;;;;;;;;6.80;100.00;101229.25;4955613;28;19929;-63
2022/11/25 08:53:02;;;;;;;;;;;;;;;6.82;100.00;101238.03;4952610;28;20378;-64
2022/11/25 08:55:27;;;;;;;;;;;;;;;6.82;100.00;101238.03;4951891;29;19924;-64
2022/11/25 08:57:53;;;;;;;;;;;;;;;6.82;100.00;101247.13;4952367;29;20005;-63
2022/11/25 09:00:19;;;;;;;;;;;;;;;6.85;100.00;101241.06;4952566;29;19918;-63
2022/11/25 09:02:44;;;;;;;;;;;;;;;6.89;100.00;101238.63;4952214;29;19918;-64
2022/11/25 09:05:13;;;;;;;;;;;;;;;6.99;100.00;101246.06;4965901;28;19925;-63
2022/11/25 09:07:39;;;;;;;;;;;;;;;6.94;100.00;101254.31;4961389;28;19917;-63
2022/11/25 09:10:05;;;;;;;;;;;;;;;6.97;100.00;101257.34;4965452;28;20388;-64
2022/11/25 09:12:31;;;;;;;;;;;;;;;7.09;100.00;101254.34;4951172;28;19921;-63
2022/11/25 09:14:56;;;;;;;;;;;;;;;7.06;100.00;101265.88;4966976;28;19922;-63
2022/11/25 09:17:21;;;;;;;;;;;;;;;7.11;100.00;101270.56;4968804;28;19922;-63
2022/11/25 09:19:47;;;;;;;;;;;;;;;7.13;100.00;101273.88;4971482;28;20345;-63
2022/11/25 09:22:12;;;;;;;;;;;;;;;7.17;100.00;101273.06;4971455;28;19922;-62
2022/11/25 09:24:37;;;;;;;;;;;;;;;7.25;100.00;101276.38;4971649;28;19953;-63
2022/11/25 09:27:02;;;;;;;;;;;;;;;7.27;100.00;101286.03;4970175;28;20012;-64
2022/11/25 09:29:29;;;;;;;;;;;;;;;7.28;100.00;101278.59;4971532;28;19914;-65
2022/11/25 09:31:54;;;;;;;;;;;;;;;7.33;100.00;101284.09;4971387;28;20016;-62
2022/11/25 09:34:20;;;;;;;;;;;;;;;7.37;100.00;101293.47;4971285;28;20014;-62
2022/11/25 09:36:45;;;;;;;;;;;;;;;7.39;100.00;101295.94;4971296;28;19954;-63
2022/11/25 09:39:10;;;;;;;;;;;;;;;7.43;100.00;101297.84;4971196;28;20382;-63
2022/11/25 09:47:37;;;;;;;;;;;;;;;7.63;100.00;101310.00;4971345;28;20321;-62
2022/11/25 09:50:10;;;;;;;;;;;;;;;7.65;100.00;101310.53;4973048;28;19914;-63
2022/11/25 09:52:35;;;;;;;;;;;;;;;7.72;100.00;101326.81;4973923;28;19918;-63
2022/11/25 09:55:07;;;;;;;;;;;;;;;7.76;100.00;101320.47;4973070;28;19914;-63
2022/11/25 09:57:32;;;;;;;;;;;;;;;7.77;100.00;101324.88;4975238;28;19918;-62
2022/11/25 10:00:04;;;;;;;;;;;;;;;7.81;100.00;101334.22;4976531;28;19920;-63
2022/11/25 10:02:35;;;;;;;;;;;;;;;7.90;100.00;101333.66;4975458;28;20014;-64
2022/11/25 10:05:05;;;;;;;;;;;;;;;7.96;100.00;101329.84;4972351;28;20060;-64
2022/11/25 10:07:35;;;;;;;;;;;;;;;8.02;100.00;101336.16;4974347;28;20012;-65
2022/11/25 10:10:02;;;;;;;;;;;;;;;8.06;100.00;101340.00;4973969;28;19918;-63
2022/11/25 10:12:31;;;;;;;;;;;;;;;8.07;100.00;101347.16;4973873;28;19957;-64
2022/11/25 10:15:02;;;;;;;;;;;;;;;8.12;100.00;101349.94;4972380;28;19954;-63
2022/11/25 10:17:30;;;;;;;;;;;;;;;8.18;100.00;101351.56;4973922;28;20055;-63
2022/11/25 10:20:02;;;;;;;;;;;;;;;8.21;100.00;101355.69;4974691;28;20436;-63
2022/11/25 10:22:30;;;;;;;;;;;;;;;8.27;100.00;101363.69;4973361;28;19918;-63
2022/11/25 10:24:57;;;;;;;;;;;;;;;8.33;100.00;101375.53;4974717;28;19917;-63
2022/11/25 10:27:30;;;;;;;;;;;;;;;8.38;100.00;101370.00;4974770;28;19996;-64
2022/11/25 10:30:00;;;;;;;;;;;;;;;8.40;100.00;101376.06;4974568;28;19914;-63
2022/11/25 10:32:28;;;;;;;;;;;;;;;8.48;100.00;101368.38;4974489;28;20007;-63
2022/11/25 10:34:57;;;;;;;;;;;;;;;8.49;100.00;101376.38;4973017;28;20009;-63
2022/11/25 10:37:42;;;;;;;;;;;;;;;8.62;100.00;101380.47;4974502;28;20315;-63
2022/11/25 10:40:12;;;;;;;;;;;;;;;8.60;100.00;101388.19;4974623;28;19921;-62
2022/11/25 10:42:38;;;;;;;;;;;;;;;8.68;100.00;101395.09;4974377;28;20326;-62
2022/11/25 10:45:07;;;;;;;;;;;;;;;8.79;100.00;101388.41;4974517;28;19921;-63
2022/11/25 10:47:34;;;;;;;;;;;;;;;8.78;100.00;101388.69;4974487;28;19921;-63
2022/11/25 10:50:11;;;;;;;;;;;;;;;8.82;100.00;101398.88;4974129;28;19925;-63
2022/11/25 10:52:44;;;;;;;;;;;;;;;8.85;100.00;101398.34;4973830;28;19925;-62
2022/11/25 10:55:11;;;;;;;;;;;;;;;8.88;100.00;101395.00;4973306;28;19921;-63
2022/11/25 10:57:36;;;;;;;;;;;;;;;8.93;100.00;101401.63;4973619;28;19957;-63
2022/11/25 11:00:05;;;;;;;;;;;;;;;8.96;100.00;101393.59;4973813;28;19949;-63
2022/11/25 11:02:33;;;;;;;;;;;;;;;8.99;100.00;101401.31;4972362;28;19918;-63
2022/11/25 11:05:00;;;;;;;;;;;;;;;9.04;100.00;101412.34;4972265;28;20334;-63
2022/11/25 11:07:27;;;;;;;;;;;;;;;9.09;100.00;101408.72;4973551;28;19925;-62
2022/11/25 11:09:52;;;;;;;;;;;;;;;9.11;100.00;101408.47;4973490;28;19917;-63
2022/11/25 11:12:28;;;;;;;;;;;;;;;9.16;100.00;101411.19;4973546;28;20015;-62
2022/11/25 11:15:13;;;;;;;;;;;;;;;9.21;100.00;101413.91;4973398;28;19922;-62
2022/11/25 11:17:38;;;;;;;;;;;;;;;9.30;100.00;101420.53;4973604;28;19922;-63
2022/11/25 11:20:06;;;;;;;;;;;;;;;9.32;100.00;101421.03;4973937;28;19914;-64
2022/11/25 11:22:32;;;;;;;;;;;;;;;9.31;100.00;101422.16;4973735;28;20405;-63
2022/11/25 11:25:24;;;;;;;;;;;;;;;9.38;100.00;101427.38;4972336;28;19922;-62
2022/11/25 11:27:49;;;;;;;;;;;;;;;9.40;100.00;101432.63;4971746;28;19922;-64
2022/11/25 11:30:19;;;;;;;;;;;;;;;9.42;100.00;101435.91;4973926;28;19918;-64
2022/11/25 11:32:52;;;;;;;;;;;;;;;9.54;100.00;101439.16;4973660;28;19969;-63
2022/11/25 11:35:32;;;;;;;;;;;;;;;9.54;100.00;101444.69;4973836;28;19922;-63
2022/11/25 11:38:01;;;;;;;;;;;;;;;9.56;100.00;101445.25;4973917;28;19918;-63
2022/11/25 11:40:34;;;;;;;;;;;;;;;9.63;100.00;101445.75;4973662;28;19941;-63
2022/11/25 11:43:00;;;;;;;;;;;;;;;9.67;100.00;101446.84;4973810;28;20028;-62
2022/11/25 11:45:28;;;;;;;;;;;;;;;9.66;100.00;101455.41;4973848;28;20361;-63
2022/11/25 11:48:12;;;;;;;;;;;;;;;9.71;100.00;101451.78;4973476;28;19917;-63
2022/11/25 11:51:00;;;;;;;;;;;;;;;9.75;100.00;101466.69;4973582;28;19918;-62
2022/11/25 11:53:30;;;;;;;;;;;;;;;9.81;100.00;101462.78;4973149;28;19914;-63
2022/11/25 11:56:10;;;;;;;;;;;;;;;9.81;100.00;101469.13;4972516;28;19914;-62
2022/11/25 11:58:49;;;;;;;;;;;;;;;9.89;98.35;101473.22;4973209;28;19976;-62
2022/11/25 12:01:21;;;;;;;;;;;;;;;9.93;97.90;101476.22;4971868;28;20012;-62
2022/11/25 12:04:13;;;;;;;;;;;;;;;9.94;98.37;101466.84;4971430;28;19920;-64
2022/11/25 12:06:41;;;;;;;;;;;;;;;9.94;98.23;101475.13;4972572;28;19913;-63
2022/11/25 12:09:14;;;;;;;;;;;;;;;9.94;98.79;101475.13;4973035;28;19925;-64
2022/11/25 12:11:43;;;;;;;;;;;;;;;10.03;97.84;101481.69;4973030;28;20420;-63
2022/11/25 12:14:13;;;;;;;;;;;;;;;10.18;95.02;101477.19;4972558;28;19924;-62
2022/11/25 12:16:48;;;;;;;;;;;;;;;10.12;95.69;101491.03;4972899;28;20029;-63
2022/11/25 12:19:36;;;;;;;;;;;;;;;10.18;94.89;101491.00;4972810;28;19918;-62
2022/11/25 12:22:07;;;;;;;;;;;;;;;10.20;93.68;101492.38;4973150;28;19914;-62
2022/11/25 12:24:57;;;;;;;;;;;;;;;10.12;95.54;101498.50;4973016;28;19914;-63
2022/11/25 12:27:25;;;;;;;;;;;;;;;10.17;95.09;101494.88;4972898;28;20457;-62
2022/11/25 12:30:01;;;;;;;;;;;;;;;10.16;95.97;101496.81;4972933;28;19918;-64
2022/11/25 12:32:44;;;;;;;;;;;;;;;10.20;95.60;101497.91;4973045;28;19918;-63
2022/11/25 12:35:09;;;;;;;;;;;;;;;10.26;93.80;101501.44;4972900;28;19925;-63
2022/11/25 12:37:57;;;;;;;;;;;;;;;10.22;93.05;101506.75;4971502;28;19917;-63
2022/11/25 12:40:32;;;;;;;;;;;;;;;10.31;93.06;101506.94;4972732;28;19969;-64
2022/11/25 12:43:04;;;;;;;;;;;;;;;10.27;94.00;101508.63;4972493;28;19941;-63
2022/11/25 12:45:29;;;;;;;;;;;;;;;10.22;95.24;101514.19;4972530;28;19914;-62
2022/11/25 12:47:55;;;;;;;;;;;;;;;10.24;95.47;101525.78;4972510;28;19936;-63
2022/11/25 12:50:43;;;;;;;;;;;;;;;10.24;95.59;101518.34;4972310;28;19952;-63
2022/11/25 12:53:14;;;;;;;;;;;;;;;10.32;94.89;101532.66;4971828;28;20012;-63